Time;durP1;ratioP1;P1;durP2;ratioP2;P2;SDS_P1;SDS_P2;PMS_P1;PMS_P2;Temp;Humidity;BMP_temperature;BMP_pressure;BME280_temperature;BME280_humidity;BME280_pressure;Samples;Min_cycle;Max_cycle;Signal;HPM_P1;HPM_P2
2023/01/02 00:00:12;;;;;;;4.65;1.98;;;;;;;;;;5043138;27;21100;-71
2023/01/02 00:02:39;;;;;;;5.00;1.88;;;;;;;;;;5005181;28;20041;-71
2023/01/02 00:05:06;;;;;;;5.38;2.00;;;;;;;;;;4998842;28;20068;-71
2023/01/02 00:07:34;;;;;;;5.63;2.20;;;;;;;;;;5006343;28;20195;-71
2023/01/02 00:10:03;;;;;;;4.25;2.10;;;;;;;;;;5032536;28;20049;-71
2023/01/02 00:12:30;;;;;;;5.00;1.98;;;;;;;;;;5018555;28;20766;-71
2023/01/02 00:14:57;;;;;;;6.50;2.40;;;;;;;;;;5003061;28;20053;-71
2023/01/02 00:17:28;;;;;;;5.95;2.47;;;;;;;;;;4938984;28;20117;-72
2023/01/02 00:19:55;;;;;;;5.22;2.20;;;;;;;;;;5003900;28;20049;-71
2023/01/02 00:22:22;;;;;;;5.15;2.30;;;;;;;;;;5015064;28;20053;-72
2023/01/02 00:24:50;;;;;;;6.07;2.45;;;;;;;;;;4997998;28;20142;-73
2023/01/02 00:27:25;;;;;;;6.47;2.37;;;;;;;;;;4964070;28;20060;-71
2023/01/02 00:29:51;;;;;;;7.07;2.33;;;;;;;;;;4944931;28;20104;-72
2023/01/02 00:32:18;;;;;;;7.70;2.53;;;;;;;;;;5021691;28;20053;-72
2023/01/02 00:34:52;;;;;;;5.03;2.05;;;;;;;;;;5025218;28;20037;-71
2023/01/02 00:37:18;;;;;;;4.70;2.17;;;;;;;;;;4986026;28;20052;-71
2023/01/02 00:39:49;;;;;;;6.30;2.60;;;;;;;;;;4995642;28;20081;-71
2023/01/02 00:42:16;;;;;;;7.82;2.33;;;;;;;;;;5010152;28;20088;-72
2023/01/02 00:44:49;;;;;;;4.53;2.00;;;;;;;;;;4975519;28;20056;-72
2023/01/02 00:47:17;;;;;;;5.20;2.53;;;;;;;;;;5033878;28;20120;-72
2023/01/02 00:49:44;;;;;;;7.20;2.60;;;;;;;;;;4988452;28;20051;-72
2023/01/02 00:52:14;;;;;;;6.18;2.17;;;;;;;;;;5006915;28;20063;-71
2023/01/02 00:54:41;;;;;;;4.88;2.17;;;;;;;;;;5005963;28;20313;-73
2023/01/02 01:04:26;;;;;;;5.22;1.98;;;;;;;;;;4898301;28;20047;-71
2023/01/02 01:06:53;;;;;;;4.68;2.05;;;;;;;;;;4859347;28;20056;-72
2023/01/02 01:09:26;;;;;;;5.68;2.20;;;;;;;;;;4905506;28;20433;-72
2023/01/02 01:14:18;;;;;;;7.18;2.47;;;;;;;;;;4913785;28;20043;-71
2023/01/02 01:16:47;;;;;;;10.05;2.65;;;;;;;;;;4887317;28;20051;-73
2023/01/02 01:19:14;;;;;;;8.15;2.42;;;;;;;;;;4936305;28;21411;-71
2023/01/02 01:21:42;;;;;;;7.85;2.47;;;;;;;;;;4991764;28;20084;-71
2023/01/02 01:24:08;;;;;;;6.50;2.22;;;;;;;;;;5009055;28;20248;-71
2023/01/02 01:26:37;;;;;;;8.52;2.47;;;;;;;;;;4956488;28;20046;-71
2023/01/02 01:29:04;;;;;;;7.05;2.65;;;;;;;;;;4997457;28;20127;-73
2023/01/02 01:31:30;;;;;;;7.82;2.50;;;;;;;;;;4989992;28;20059;-71
2023/01/02 01:33:57;;;;;;;7.28;2.47;;;;;;;;;;4993404;28;20061;-71
2023/01/02 01:36:28;;;;;;;6.95;2.67;;;;;;;;;;4985915;28;20061;-71
2023/01/02 01:38:56;;;;;;;8.95;2.60;;;;;;;;;;4989097;28;20045;-71
2023/01/02 01:41:24;;;;;;;6.70;2.72;;;;;;;;;;4997202;28;20050;-71
2023/01/02 01:43:54;;;;;;;4.53;2.10;;;;;;;;;;5001903;28;20080;-72
2023/01/02 01:46:24;;;;;;;5.43;2.20;;;;;;;;;;4945047;28;20281;-71
2023/01/02 01:48:55;;;;;;;7.05;2.70;;;;;;;;;;4996448;28;20061;-71
2023/01/02 01:51:22;;;;;;;5.88;2.40;;;;;;;;;;5017798;28;20421;-72
2023/01/02 01:53:50;;;;;;;6.53;2.65;;;;;;;;;;4992107;28;20057;-71
2023/01/02 01:56:23;;;;;;;5.63;2.75;;;;;;;;;;4957945;28;20048;-72
2023/01/02 01:58:49;;;;;;;10.88;2.60;;;;;;;;;;4978279;28;20238;-72
2023/01/02 02:01:25;;;;;;;6.68;2.40;;;;;;;;;;4950480;28;20057;-71
2023/01/02 02:03:55;;;;;;;7.30;2.50;;;;;;;;;;5017756;28;20041;-71
2023/01/02 02:06:22;;;;;;;8.25;2.80;;;;;;;;;;5004114;28;20290;-71
2023/01/02 02:09:01;;;;;;;10.02;2.50;;;;;;;;;;4981452;28;20095;-73
2023/01/02 02:11:28;;;;;;;7.72;2.70;;;;;;;;;;5007662;28;20065;-72
2023/01/02 02:13:57;;;;;;;7.65;2.53;;;;;;;;;;4978766;28;20077;-72
2023/01/02 02:16:23;;;;;;;;;;;;;;;;;;4981766;28;20045;-71
2023/01/02 02:19:05;;;;;;;5.93;2.45;;;;;;;;;;4971903;28;19946;-73
2023/01/02 02:21:45;;;;;;;8.57;2.75;;;;;;;;;;4974746;28;20056;-71
2023/01/02 02:24:29;;;;;;;6.32;2.35;;;;;;;;;;5007658;28;20056;-72
2023/01/02 02:27:09;;;;;;;7.10;2.38;;;;;;;;;;4961569;28;20059;-72
2023/01/02 02:29:54;;;;;;;8.77;2.55;;;;;;;;;;4992013;28;20049;-71
2023/01/02 02:32:27;;;;;;;6.50;2.47;;;;;;;;;;4979616;28;20272;-73
2023/01/02 02:34:59;;;;;;;6.90;2.15;;;;;;;;;;4961095;28;20066;-72
2023/01/02 02:37:31;;;;;;;4.50;2.08;;;;;;;;;;4914645;28;20142;-71
2023/01/02 02:40:03;;;;;;;4.68;2.10;;;;;;;;;;4946375;28;20567;-72
2023/01/02 02:42:39;;;;;;;5.88;2.15;;;;;;;;;;4990258;28;20045;-71
2023/01/02 02:45:11;;;;;;;6.35;2.35;;;;;;;;;;4923436;28;20589;-72
2023/01/02 02:47:42;;;;;;;4.90;2.00;;;;;;;;;;4910196;28;20057;-72
2023/01/02 02:50:13;;;;;;;9.82;2.33;;;;;;;;;;4892081;28;20047;-72
2023/01/02 02:52:42;;;;;;;11.95;2.63;;;;;;;;;;4909893;28;20046;-72
2023/01/02 02:57:35;;;;;;;7.95;2.35;;;;;;;;;;4931454;28;20050;-73
2023/01/02 03:00:03;;;;;;;6.18;2.15;;;;;;;;;;4970033;28;20057;-73
2023/01/02 03:02:30;;;;;;;5.50;2.00;;;;;;;;;;4874856;28;20644;-73
2023/01/02 03:05:01;;;;;;;9.77;2.28;;;;;;;;;;4988770;28;20062;-74
2023/01/02 03:07:32;;;;;;;8.73;1.80;;;;;;;;;;4957687;28;20149;-74
2023/01/02 03:15:10;;;;;;;4.20;2.10;;;;;;;;;;5034909;27;20479;-72
2023/01/02 03:17:41;;;;;;;6.75;2.00;;;;;;;;;;5007495;28;20062;-72
2023/01/02 03:20:10;;;;;;;7.13;2.20;;;;;;;;;;4977992;28;20045;-72
2023/01/02 03:22:39;;;;;;;8.60;2.10;;;;;;;;;;4974484;28;20056;-72
2023/01/02 03:25:09;;;;;;;7.97;2.13;;;;;;;;;;4935967;28;20050;-72
2023/01/02 03:27:38;;;;;;;5.65;1.80;;;;;;;;;;4941406;28;20050;-72
2023/01/02 03:30:06;;;;;;;5.88;1.90;;;;;;;;;;4963064;28;20117;-72
2023/01/02 03:32:37;;;;;;;5.43;1.90;;;;;;;;;;4956535;28;20061;-71
2023/01/02 03:35:06;;;;;;;6.70;2.00;;;;;;;;;;4968808;28;20219;-72
2023/01/02 03:37:34;;;;;;;4.38;1.83;;;;;;;;;;4972156;28;20133;-72
2023/01/02 03:42:27;;;;;;;5.97;2.42;;;;;;;;;;4888219;28;20042;-71
2023/01/02 03:44:58;;;;;;;8.73;2.30;;;;;;;;;;4958658;28;20073;-72
2023/01/02 03:47:28;;;;;;;8.13;2.25;;;;;;;;;;4961294;28;20113;-72
2023/01/02 03:49:57;;;;;;;7.18;2.00;;;;;;;;;;4974574;28;20068;-71
2023/01/02 03:52:24;;;;;;;4.78;1.58;;;;;;;;;;4984550;28;20056;-71
2023/01/02 03:54:51;;;;;;;10.32;2.28;;;;;;;;;;4989399;28;20049;-71
2023/01/02 03:57:23;;;;;;;8.25;2.47;;;;;;;;;;5009451;28;20052;-71
2023/01/02 03:59:55;;;;;;;7.38;2.08;;;;;;;;;;4987769;28;20060;-71
2023/01/02 04:02:26;;;;;;;8.52;1.95;;;;;;;;;;4972172;28;20074;-71
2023/01/02 04:04:54;;;;;;;6.35;1.80;;;;;;;;;;5011031;28;20151;-71
2023/01/02 04:07:27;;;;;;;4.35;1.98;;;;;;;;;;5037801;28;20077;-71
2023/01/02 04:09:55;;;;;;;5.55;2.10;;;;;;;;;;5046891;28;20765;-72
2023/01/02 04:12:23;;;;;;;7.75;2.00;;;;;;;;;;5029945;28;20054;-72
2023/01/02 04:14:51;;;;;;;12.05;1.98;;;;;;;;;;5015576;28;20128;-72
2023/01/02 04:17:20;;;;;;;7.15;2.30;;;;;;;;;;5006417;28;20162;-75
2023/01/02 04:19:48;;;;;;;5.18;1.85;;;;;;;;;;4963826;28;20249;-74
2023/01/02 04:25:10;;;;;;;5.15;1.75;;;;;;;;;;5031015;27;20528;-72
2023/01/02 04:27:39;;;;;;;5.80;1.90;;;;;;;;;;4976107;28;20049;-72
2023/01/02 04:30:08;;;;;;;10.13;1.92;;;;;;;;;;5005486;28;21402;-73
2023/01/02 04:32:38;;;;;;;3.60;1.80;;;;;;;;;;4969604;28;20061;-71
2023/01/02 04:35:08;;;;;;;3.60;1.75;;;;;;;;;;4988988;28;20061;-72
2023/01/02 04:37:37;;;;;;;11.93;2.13;;;;;;;;;;4980501;28;20056;-72
2023/01/02 04:40:08;;;;;;;8.07;1.90;;;;;;;;;;4987162;28;20049;-72
2023/01/02 04:42:36;;;;;;;7.90;2.10;;;;;;;;;;4994488;28;20057;-71
2023/01/02 04:45:06;;;;;;;5.40;1.90;;;;;;;;;;4988837;28;20099;-72
2023/01/02 04:47:32;;;;;;;7.97;2.40;;;;;;;;;;5000880;28;20064;-71
2023/01/02 04:49:59;;;;;;;7.70;1.90;;;;;;;;;;4994267;28;20137;-71
2023/01/02 04:52:26;;;;;;;6.00;1.73;;;;;;;;;;4973454;28;20073;-71
2023/01/02 04:54:53;;;;;;;5.97;1.73;;;;;;;;;;4997772;28;20037;-71
2023/01/02 04:57:20;;;;;;;5.28;2.00;;;;;;;;;;4997521;28;20061;-71
2023/01/02 04:59:49;;;;;;;4.13;1.80;;;;;;;;;;4975286;28;20092;-71
2023/01/02 05:02:16;;;;;;;11.27;2.10;;;;;;;;;;4980451;28;20069;-71
2023/01/02 05:04:43;;;;;;;4.15;1.73;;;;;;;;;;5007049;28;20325;-71
2023/01/02 05:07:11;;;;;;;4.75;1.98;;;;;;;;;;5009763;28;20200;-71
2023/01/02 05:09:37;;;;;;;7.40;1.95;;;;;;;;;;5003752;28;20090;-72
2023/01/02 05:12:05;;;;;;;7.25;2.03;;;;;;;;;;5023435;28;20057;-71
2023/01/02 05:14:32;;;;;;;5.65;1.83;;;;;;;;;;5001088;28;20157;-71
2023/01/02 05:17:00;;;;;;;7.07;1.80;;;;;;;;;;4986995;28;20049;-71
2023/01/02 05:19:27;;;;;;;5.07;1.75;;;;;;;;;;4964827;28;20064;-71
2023/01/02 05:24:59;;;;;;;4.32;1.73;;;;;;;;;;4967923;28;20053;-71
2023/01/02 05:27:26;;;;;;;6.03;1.80;;;;;;;;;;4954866;28;20049;-72
2023/01/02 05:34:46;;;;;;;5.53;1.85;;;;;;;;;;4861570;29;20082;-72
2023/01/02 05:37:14;;;;;;;7.00;1.80;;;;;;;;;;4914625;28;20061;-71
2023/01/02 05:39:41;;;;;;;4.47;1.65;;;;;;;;;;4905714;28;20090;-71
2023/01/02 05:42:08;;;;;;;6.00;1.90;;;;;;;;;;4933517;28;20055;-72
2023/01/02 05:44:34;;;;;;;5.57;1.98;;;;;;;;;;4932541;28;20050;-71
2023/01/02 05:47:01;;;;;;;5.35;1.75;;;;;;;;;;4985278;28;20120;-71
2023/01/02 05:49:30;;;;;;;5.47;2.20;;;;;;;;;;4979370;28;20054;-72
2023/01/02 05:51:59;;;;;;;3.97;1.67;;;;;;;;;;4986433;28;20059;-71
2023/01/02 05:54:28;;;;;;;4.43;1.60;;;;;;;;;;4920475;28;20062;-71
2023/01/02 05:56:56;;;;;;;7.00;2.03;;;;;;;;;;4970263;28;20060;-72
2023/01/02 05:59:23;;;;;;;6.10;2.10;;;;;;;;;;4978720;28;20049;-73
2023/01/02 06:01:54;;;;;;;5.45;1.75;;;;;;;;;;4960328;28;20139;-72
2023/01/02 06:04:21;;;;;;;7.18;2.25;;;;;;;;;;4956711;28;20060;-74
2023/01/02 06:06:48;;;;;;;7.93;2.70;;;;;;;;;;4956788;28;20068;-72
2023/01/02 06:09:18;;;;;;;5.38;1.90;;;;;;;;;;4944267;28;20045;-73
2023/01/02 06:11:46;;;;;;;3.75;1.80;;;;;;;;;;4971790;28;20292;-72
2023/01/02 06:14:13;;;;;;;5.32;1.65;;;;;;;;;;4939036;28;20084;-72
2023/01/02 06:16:42;;;;;;;6.50;2.15;;;;;;;;;;4967105;28;20244;-73
2023/01/02 06:19:09;;;;;;;3.53;1.67;;;;;;;;;;4974352;28;20065;-74
2023/01/02 06:21:36;;;;;;;5.63;1.73;;;;;;;;;;4969782;28;20057;-72
2023/01/02 06:26:30;;;;;;;10.18;1.88;;;;;;;;;;4873146;28;20132;-71
2023/01/02 06:28:57;;;;;;;5.30;2.17;;;;;;;;;;4914111;28;20065;-72
2023/01/02 06:31:28;;;;;;;4.43;1.55;;;;;;;;;;4906691;28;20639;-73
2023/01/02 06:39:03;;;;;;;4.65;2.25;;;;;;;;;;5020762;27;20463;-74
2023/01/02 06:41:30;;;;;;;5.80;1.90;;;;;;;;;;5011142;28;20048;-74
2023/01/02 06:49:04;;;;;;;5.80;1.50;;;;;;;;;;4967249;28;20464;-71
2023/01/02 06:51:30;;;;;;;7.78;1.75;;;;;;;;;;4959875;28;20058;-72
2023/01/02 06:53:57;;;;;;;2.65;1.17;;;;;;;;;;4897703;28;20097;-71
2023/01/02 06:56:24;;;;;;;4.05;1.25;;;;;;;;;;4969176;28;20066;-71
2023/01/02 06:58:51;;;;;;;4.20;1.40;;;;;;;;;;4923108;28;20045;-72
2023/01/02 07:01:19;;;;;;;3.58;1.30;;;;;;;;;;4975489;28;20049;-71
2023/01/02 07:03:47;;;;;;;2.20;1.00;;;;;;;;;;4928182;28;20046;-72
2023/01/02 07:09:14;;;;;;;2.00;0.90;;;;;;;;;;4925382;28;20275;-72
2023/01/02 07:11:41;;;;;;;2.95;1.02;;;;;;;;;;4913665;28;20055;-73
2023/01/02 07:14:09;;;;;;;1.77;0.93;;;;;;;;;;4957363;28;20252;-72
2023/01/02 07:16:36;;;;;;;1.17;0.80;;;;;;;;;;4958112;28;20050;-72
2023/01/02 07:19:03;;;;;;;2.90;0.95;;;;;;;;;;4976721;28;20531;-71
2023/01/02 07:21:30;;;;;;;1.60;0.90;;;;;;;;;;4957302;28;20078;-72
2023/01/02 07:23:57;;;;;;;2.67;1.10;;;;;;;;;;4970431;28;20108;-72
2023/01/02 07:26:25;;;;;;;3.67;1.00;;;;;;;;;;4958297;28;20050;-71
2023/01/02 07:28:54;;;;;;;2.65;1.00;;;;;;;;;;4957467;28;20057;-71
2023/01/02 07:31:23;;;;;;;1.48;1.08;;;;;;;;;;4972858;28;20053;-71
2023/01/02 07:33:50;;;;;;;1.98;1.13;;;;;;;;;;4942086;28;21985;-71
2023/01/02 07:36:19;;;;;;;1.42;0.90;;;;;;;;;;4943060;28;20057;-71
2023/01/02 07:38:50;;;;;;;1.42;1.00;;;;;;;;;;4786016;28;20325;-72
2023/01/02 07:41:18;;;;;;;2.10;1.17;;;;;;;;;;4886218;28;20081;-71
2023/01/02 07:43:46;;;;;;;2.72;1.30;;;;;;;;;;4963863;28;20050;-71
2023/01/02 07:46:15;;;;;;;3.33;1.45;;;;;;;;;;5004722;28;20061;-71
2023/01/02 07:53:48;;;;;;;3.20;1.75;;;;;;;;;;4986545;27;20453;-72
2023/01/02 07:56:17;;;;;;;3.60;1.67;;;;;;;;;;4937173;28;20054;-72
2023/01/02 07:58:43;;;;;;;2.75;1.67;;;;;;;;;;4896057;28;20059;-71
2023/01/02 08:01:13;;;;;;;4.00;1.80;;;;;;;;;;4911650;28;20066;-72
2023/01/02 08:03:46;;;;;;;4.32;1.98;;;;;;;;;;5003757;28;20049;-71
2023/01/02 08:06:14;;;;;;;3.63;1.88;;;;;;;;;;4961697;28;20102;-72
2023/01/02 08:08:43;;;;;;;3.83;1.83;;;;;;;;;;4927677;28;20067;-71
2023/01/02 08:11:14;;;;;;;4.15;1.98;;;;;;;;;;4915327;28;20058;-71
2023/01/02 08:13:41;;;;;;;3.80;1.90;;;;;;;;;;4963879;28;20106;-71
2023/01/02 08:16:16;;;;;;;5.00;2.20;;;;;;;;;;4966163;28;20042;-73
2023/01/02 08:23:48;;;;;;;6.35;3.00;;;;;;;;;;5024103;28;20444;-73
2023/01/02 08:26:15;;;;;;;7.38;3.33;;;;;;;;;;5012441;28;20107;-71
2023/01/02 08:28:42;;;;;;;6.35;3.33;;;;;;;;;;4984353;28;20087;-72
2023/01/02 08:33:51;;;;;;;7.82;3.50;;;;;;;;;;5000374;28;20417;-74
2023/01/02 08:36:18;;;;;;;6.88;3.33;;;;;;;;;;4972858;28;20054;-74
2023/01/02 08:38:46;;;;;;;7.18;3.17;;;;;;;;;;4912354;28;20052;-74
2023/01/02 08:43:57;;;;;;;5.97;3.08;;;;;;;;;;4983674;28;20536;-73
2023/01/02 08:46:24;;;;;;;7.45;3.30;;;;;;;;;;4882146;28;20075;-74
2023/01/02 08:53:59;;;;;;;6.90;3.00;;;;;;;;;;5036179;27;20468;-72
2023/01/02 08:56:29;;;;;;;8.50;3.05;;;;;;;;;;4967417;28;20301;-73
2023/01/02 08:59:00;;;;;;;5.70;2.67;;;;;;;;;;4985015;28;20054;-74
2023/01/02 09:04:10;;;;;;;6.32;2.42;;;;;;;;;;4928429;27;2077029;-71
2023/01/02 09:06:37;;;;;;;5.60;2.58;;;;;;;;;;4911072;28;20164;-72
2023/01/02 09:09:06;;;;;;;5.18;2.58;;;;;;;;;;4893253;29;20055;-72
2023/01/02 09:11:34;;;;;;;5.53;2.38;;;;;;;;;;4884163;29;20052;-72
2023/01/02 09:14:03;;;;;;;5.03;2.30;;;;;;;;;;4867705;28;20096;-72
2023/01/02 09:16:34;;;;;;;5.68;2.53;;;;;;;;;;4874722;29;20280;-72
2023/01/02 09:19:02;;;;;;;5.85;2.67;;;;;;;;;;4872495;28;20051;-72
2023/01/02 09:24:18;;;;;;;5.28;2.47;;;;;;;;;;4998778;27;20434;-72
2023/01/02 09:26:48;;;;;;;7.13;2.42;;;;;;;;;;4926514;28;20056;-71
2023/01/02 09:29:15;;;;;;;6.38;2.72;;;;;;;;;;4886286;28;20071;-72
2023/01/02 09:34:30;;;;;;;5.43;2.70;;;;;;;;;;5006685;27;20484;-71
2023/01/02 09:36:57;;;;;;;5.45;2.53;;;;;;;;;;5011939;28;20060;-72
2023/01/02 09:39:27;;;;;;;6.80;2.97;;;;;;;;;;4947097;28;20053;-74
2023/01/02 09:44:40;;;;;;;7.45;3.00;;;;;;;;;;5009578;27;20440;-74
2023/01/02 09:47:08;;;;;;;8.40;2.83;;;;;;;;;;4976596;28;20095;-73
2023/01/02 09:49:43;;;;;;;6.55;2.60;;;;;;;;;;4950039;28;20126;-74
2023/01/02 09:55:29;;;;;;;5.57;2.30;;;;;;;;;;5020643;27;20517;-72
2023/01/02 09:58:01;;;;;;;6.05;2.38;;;;;;;;;;4989845;28;20107;-74
2023/01/02 10:06:00;;;;;;;4.38;1.98;;;;;;;;;;5027027;27;20482;-72
2023/01/02 10:08:32;;;;;;;4.90;1.92;;;;;;;;;;4933913;28;20053;-71
2023/01/02 10:11:04;;;;;;;5.57;2.22;;;;;;;;;;4923863;28;20060;-71
2023/01/02 10:18:56;;;;;;;5.28;2.15;;;;;;;;;;5037018;27;20525;-72
2023/01/02 10:21:24;;;;;;;4.55;2.30;;;;;;;;;;4980748;28;20920;-71
2023/01/02 10:24:01;;;;;;;5.18;2.00;;;;;;;;;;4955569;28;20148;-71
2023/01/02 10:26:31;;;;;;;4.18;2.05;;;;;;;;;;4989088;28;21432;-71
2023/01/02 10:29:02;;;;;;;7.30;1.90;;;;;;;;;;4995645;28;20162;-71
2023/01/02 10:31:37;;;;;;;5.25;2.10;;;;;;;;;;4933879;28;20155;-71
2023/01/02 10:34:07;;;;;;;4.90;1.83;;;;;;;;;;4971496;28;20053;-71
2023/01/02 10:36:36;;;;;;;5.47;2.10;;;;;;;;;;4967986;28;20740;-71
2023/01/02 10:39:04;;;;;;;6.80;2.10;;;;;;;;;;4980616;28;20307;-71
2023/01/02 10:41:32;;;;;;;3.60;1.58;;;;;;;;;;4948049;28;20083;-71
2023/01/02 10:44:00;;;;;;;3.67;1.80;;;;;;;;;;4993778;28;20053;-71
2023/01/02 10:46:31;;;;;;;3.58;1.52;;;;;;;;;;4980663;28;20060;-71
2023/01/02 10:48:58;;;;;;;5.72;1.85;;;;;;;;;;4978482;28;20441;-71
2023/01/02 10:51:30;;;;;;;4.85;1.83;;;;;;;;;;5000502;28;20170;-71
2023/01/02 10:54:03;;;;;;;4.35;1.65;;;;;;;;;;4953820;28;20049;-71
2023/01/02 10:56:34;;;;;;;7.53;1.67;;;;;;;;;;4990548;28;20130;-71
2023/01/02 10:59:02;;;;;;;7.32;1.55;;;;;;;;;;5001450;28;20193;-70
2023/01/02 11:01:29;;;;;;;16.88;2.20;;;;;;;;;;4983906;28;20056;-70
2023/01/02 11:04:15;;;;;;;4.82;1.60;;;;;;;;;;4988948;28;20060;-71
2023/01/02 11:06:58;;;;;;;5.32;1.23;;;;;;;;;;4979997;28;20061;-70
2023/01/02 11:09:35;;;;;;;3.20;1.27;;;;;;;;;;4969264;28;20049;-71
2023/01/02 11:12:09;;;;;;;7.80;1.40;;;;;;;;;;4961940;28;20156;-71
2023/01/02 11:14:45;;;;;;;3.42;1.48;;;;;;;;;;4993874;28;20060;-71
2023/01/02 11:17:14;;;;;;;2.67;1.00;;;;;;;;;;5024475;28;20041;-71
2023/01/02 11:19:55;;;;;;;3.92;1.40;;;;;;;;;;5001423;28;20061;-71
2023/01/02 11:22:34;;;;;;;4.63;1.27;;;;;;;;;;4942135;28;20057;-72
2023/01/02 11:25:09;;;;;;;4.35;1.40;;;;;;;;;;4991303;28;20047;-72
2023/01/02 11:27:48;;;;;;;2.83;1.17;;;;;;;;;;5004430;28;20098;-74
2023/01/02 11:30:40;;;;;;;3.78;1.45;;;;;;;;;;4906250;28;20051;-72
2023/01/02 11:33:15;;;;;;;6.13;1.17;;;;;;;;;;4878695;28;20050;-72
2023/01/02 11:35:51;;;;;;;3.63;1.13;;;;;;;;;;4943782;28;20165;-72
2023/01/02 11:38:30;;;;;;;6.40;1.48;;;;;;;;;;4934200;28;20093;-72
2023/01/02 11:40:59;;;;;;;2.42;1.20;;;;;;;;;;4911075;28;20066;-72
2023/01/02 11:48:54;;;;;;;9.70;1.20;;;;;;;;;;4839797;29;20056;-72
2023/01/02 11:53:58;;;;;;;4.33;1.23;;;;;;;;;;4828622;28;20079;-72
2023/01/02 11:56:30;;;;;;;2.72;1.00;;;;;;;;;;4891179;28;20055;-72
2023/01/02 11:59:00;;;;;;;5.68;1.02;;;;;;;;;;4880414;28;20057;-72
2023/01/02 12:03:55;;;;;;;2.17;0.98;;;;;;;;;;4846396;29;20102;-71
2023/01/02 12:06:27;;;;;;;2.72;1.13;;;;;;;;;;4883007;28;20063;-72
2023/01/02 12:09:04;;;;;;;2.20;1.00;;;;;;;;;;4921885;28;20054;-72
2023/01/02 12:16:52;;;;;;;3.10;1.00;;;;;;;;;;5018298;27;20471;-73
2023/01/02 12:19:35;;;;;;;3.05;1.05;;;;;;;;;;4900122;28;20143;-74
2023/01/02 12:25:15;;;;;;;3.17;1.20;;;;;;;;;;4980515;28;20427;-71
2023/01/02 12:33:13;;;;;;;3.83;1.30;;;;;;;;;;5028029;27;20385;-71
2023/01/02 12:36:00;;;;;;;3.93;1.30;;;;;;;;;;5038029;28;20163;-72
2023/01/02 12:38:40;;;;;;;5.13;1.70;;;;;;;;;;5014306;28;20079;-71
2023/01/02 12:41:26;;;;;;;3.35;1.23;;;;;;;;;;5037006;28;20048;-72
2023/01/02 12:47:49;;;;;;;4.53;1.85;;;;;;;;;;4973674;28;20064;-72
2023/01/02 12:50:37;;;;;;;7.45;2.33;;;;;;;;;;4966675;28;20068;-71
2023/01/02 12:53:23;;;;;;;6.67;1.70;;;;;;;;;;4956836;28;20076;-72
2023/01/02 12:56:12;;;;;;;3.55;1.52;;;;;;;;;;4984880;28;20053;-71
2023/01/02 12:58:58;;;;;;;5.97;1.95;;;;;;;;;;5015259;28;20052;-72
2023/01/02 13:01:46;;;;;;;6.00;1.83;;;;;;;;;;5035909;28;20154;-71
2023/01/02 13:04:25;;;;;;;5.10;2.00;;;;;;;;;;4932931;28;20061;-72
2023/01/02 13:07:01;;;;;;;4.82;1.85;;;;;;;;;;4996247;28;20128;-71
2023/01/02 13:09:45;;;;;;;6.13;1.70;;;;;;;;;;4995251;28;20063;-72
2023/01/02 13:12:28;;;;;;;4.97;1.77;;;;;;;;;;4987263;28;20114;-72
2023/01/02 13:14:58;;;;;;;4.72;1.95;;;;;;;;;;4931419;28;20389;-71
2023/01/02 13:33:04;;;;;;;4.18;1.90;;;;;;;;;;5033268;27;20150;-70
2023/01/02 13:35:37;;;;;;;5.72;2.17;;;;;;;;;;4970270;28;20067;-71
2023/01/02 13:38:06;;;;;;;6.75;2.35;;;;;;;;;;4968004;28;20066;-71
2023/01/02 13:40:35;;;;;;;5.03;2.05;;;;;;;;;;4924236;28;20055;-71
2023/01/02 13:43:04;;;;;;;5.60;2.13;;;;;;;;;;4934017;28;20053;-71
2023/01/02 13:45:36;;;;;;;6.45;2.47;;;;;;;;;;4963182;28;20069;-70
2023/01/02 13:48:07;;;;;;;5.55;2.67;;;;;;;;;;4955969;28;20070;-72
2023/01/02 13:50:38;;;;;;;7.72;2.35;;;;;;;;;;4970415;28;20072;-73
2023/01/02 13:58:17;;;;;;;7.85;2.95;;;;;;;;;;4917290;28;20042;-70
2023/01/02 14:00:45;;;;;;;6.70;2.70;;;;;;;;;;4969056;28;20055;-71
2023/01/02 14:03:32;;;;;;;5.40;2.60;;;;;;;;;;4930387;28;20058;-71
2023/01/02 14:06:02;;;;;;;7.72;2.70;;;;;;;;;;4958180;28;20071;-71
2023/01/02 14:08:30;;;;;;;9.18;2.80;;;;;;;;;;4947588;28;20129;-72
2023/01/02 14:11:01;;;;;;;5.53;2.60;;;;;;;;;;4929630;28;20073;-72
2023/01/02 14:16:34;;;;;;;7.68;3.55;;;;;;;;;;4976046;27;20781;-73
2023/01/02 14:19:15;;;;;;;6.90;3.08;;;;;;;;;;4928814;28;20046;-75
2023/01/02 14:21:44;;;;;;;6.60;3.00;;;;;;;;;;4922089;28;20055;-75
2023/01/02 14:24:14;;;;;;;8.93;3.20;;;;;;;;;;4912410;28;20050;-76
2023/01/02 14:26:43;;;;;;;8.45;3.17;;;;;;;;;;4919366;28;20051;-73
2023/01/02 14:36:18;;;;;;;6.88;3.50;;;;;;;;;;5077482;27;20390;-72
2023/01/02 14:38:52;;;;;;;8.80;3.33;;;;;;;;;;4945059;28;20152;-75
2023/01/02 14:47:06;;;;;;;9.52;3.25;;;;;;;;;;5097242;27;20445;-71
2023/01/02 14:49:33;;;;;;;5.57;3.20;;;;;;;;;;5010240;28;20068;-73
2023/01/02 14:52:05;;;;;;;7.68;3.30;;;;;;;;;;4969038;28;20057;-73
2023/01/02 14:54:34;;;;;;;6.57;3.10;;;;;;;;;;4977527;28;20060;-71
2023/01/02 14:57:22;;;;;;;8.18;3.65;;;;;;;;;;4959321;28;20439;-71
2023/01/02 14:59:50;;;;;;;7.20;3.35;;;;;;;;;;4868313;28;20087;-70
2023/01/02 15:02:35;;;;;;;8.27;3.15;;;;;;;;;;4940531;28;20104;-71
2023/01/02 15:07:48;;;;;;;7.32;3.53;;;;;;;;;;5069329;27;20414;-72
2023/01/02 15:10:21;;;;;;;8.00;3.45;;;;;;;;;;5059774;28;20056;-71
2023/01/02 15:13:03;;;;;;;8.43;3.40;;;;;;;;;;5048262;28;20056;-70
2023/01/02 15:15:34;;;;;;;9.13;3.50;;;;;;;;;;5004403;28;20129;-72
2023/01/02 15:18:04;;;;;;;7.35;3.40;;;;;;;;;;4975556;28;20050;-69
2023/01/02 15:20:34;;;;;;;6.72;3.08;;;;;;;;;;4955808;28;20070;-71
2023/01/02 15:23:03;;;;;;;8.07;3.40;;;;;;;;;;4959403;28;20052;-71
2023/01/02 15:28:24;;;;;;;8.55;3.47;;;;;;;;;;5005911;27;20480;-73
2023/01/02 15:30:58;;;;;;;9.30;3.70;;;;;;;;;;4927797;28;20078;-75
2023/01/02 15:33:26;;;;;;;7.72;3.50;;;;;;;;;;4933488;28;20039;-74
2023/01/02 15:41:05;;;;;;;7.20;3.00;;;;;;;;;;5062124;27;20423;-72
2023/01/02 15:46:21;;;;;;;6.68;3.10;;;;;;;;;;4968122;28;20046;-73
2023/01/02 15:53:58;;;;;;;8.75;3.70;;;;;;;;;;5037340;27;20483;-74
2023/01/02 15:56:32;;;;;;;7.45;3.10;;;;;;;;;;4864871;28;20496;-73
2023/01/02 15:58:59;;;;;;;9.18;3.80;;;;;;;;;;4910314;28;20218;-75
2023/01/02 16:14:20;;;;;;;7.03;3.28;;;;;;;;;;5007942;28;20452;-73
2023/01/02 16:16:49;;;;;;;7.85;3.58;;;;;;;;;;4911296;28;20047;-73
2023/01/02 16:19:16;;;;;;;;;;;;;;;;;;4965343;28;20046;-73
2023/01/02 16:21:42;;;;;;;6.55;3.28;;;;;;;;;;4962093;28;20350;-73
2023/01/02 16:24:10;;;;;;;10.63;3.22;;;;;;;;;;4971622;28;20054;-74
2023/01/02 16:34:24;;;;;;;6.88;3.25;;;;;;;;;;5067955;27;20530;-71
2023/01/02 16:37:06;;;;;;;7.70;3.50;;;;;;;;;;5007123;27;20064;-71
2023/01/02 16:39:43;;;;;;;8.68;3.63;;;;;;;;;;5044715;28;20044;-71
2023/01/02 16:44:55;;;;;;;7.05;3.05;;;;;;;;;;5060647;27;20094;-71
2023/01/02 16:47:23;;;;;;;7.73;3.40;;;;;;;;;;5025593;28;20048;-71
2023/01/02 16:49:52;;;;;;;7.55;3.35;;;;;;;;;;5040092;28;20147;-71
2023/01/02 16:52:20;;;;;;;;;;;;;;;;;;5022122;28;20103;-70
2023/01/02 16:54:46;;;;;;;9.50;3.03;;;;;;;;;;5062848;27;20435;-70
2023/01/02 16:57:14;;;;;;;7.07;3.13;;;;;;;;;;5018691;28;20143;-70
2023/01/02 16:59:41;;;;;;;8.63;3.20;;;;;;;;;;5033170;28;20099;-72
2023/01/02 17:02:15;;;;;;;7.22;3.28;;;;;;;;;;5021053;28;20080;-71
2023/01/02 17:04:47;;;;;;;7.40;3.50;;;;;;;;;;5069571;28;20090;-74
2023/01/02 17:12:26;;;;;;;6.60;3.20;;;;;;;;;;4979277;27;20507;-73
2023/01/02 17:14:53;;;;;;;7.70;3.22;;;;;;;;;;4959360;28;20127;-73
2023/01/02 17:17:20;;;;;;;8.45;3.00;;;;;;;;;;4974484;28;20619;-73
2023/01/02 17:19:47;;;;;;;8.27;3.22;;;;;;;;;;4937213;28;20051;-73
2023/01/02 17:22:17;;;;;;;9.05;3.38;;;;;;;;;;5029137;28;20054;-73
2023/01/02 17:24:44;;;;;;;6.95;3.10;;;;;;;;;;4977526;28;20056;-70
2023/01/02 17:27:11;;;;;;;7.93;3.10;;;;;;;;;;5025280;28;20044;-73
2023/01/02 17:29:39;;;;;;;6.30;2.63;;;;;;;;;;4992904;28;20046;-72
2023/01/02 17:32:06;;;;;;;6.55;2.90;;;;;;;;;;4988548;28;20072;-71
2023/01/02 17:34:32;;;;;;;5.85;2.65;;;;;;;;;;4993194;28;20049;-71
2023/01/02 17:36:59;;;;;;;6.90;2.85;;;;;;;;;;4998587;28;20056;-71
2023/01/02 17:39:26;;;;;;;6.50;2.97;;;;;;;;;;4976049;28;20053;-71
2023/01/02 17:41:53;;;;;;;6.95;2.70;;;;;;;;;;5000033;28;20042;-72
2023/01/02 17:44:19;;;;;;;5.00;2.40;;;;;;;;;;5011065;28;20042;-73
2023/01/02 17:46:48;;;;;;;5.43;2.67;;;;;;;;;;4994098;28;20040;-72
2023/01/02 17:49:15;;;;;;;4.57;2.17;;;;;;;;;;4994070;28;20058;-72
2023/01/02 17:51:42;;;;;;;6.13;2.42;;;;;;;;;;5003443;28;20072;-72
2023/01/02 17:54:09;;;;;;;5.22;2.63;;;;;;;;;;4961447;28;20054;-72
2023/01/02 18:01:44;;;;;;;5.43;2.55;;;;;;;;;;5015725;28;20506;-71
2023/01/02 18:04:11;;;;;;;5.38;2.40;;;;;;;;;;4966638;28;20164;-72
2023/01/02 18:06:38;;;;;;;7.75;2.42;;;;;;;;;;4945570;28;20057;-71
2023/01/02 18:09:05;;;;;;;4.70;2.22;;;;;;;;;;4981837;28;20054;-71
2023/01/02 18:11:32;;;;;;;5.90;2.47;;;;;;;;;;4948736;28;20141;-70
2023/01/02 18:13:59;;;;;;;5.70;2.50;;;;;;;;;;4948233;28;20050;-71
2023/01/02 18:16:31;;;;;;;4.85;2.40;;;;;;;;;;4930755;28;20058;-71
2023/01/02 18:19:03;;;;;;;3.58;2.00;;;;;;;;;;4973946;28;20137;-70
2023/01/02 18:21:39;;;;;;;5.68;2.45;;;;;;;;;;4966808;28;20068;-71
2023/01/02 18:24:11;;;;;;;7.82;3.03;;;;;;;;;;4961824;28;20053;-71
2023/01/02 18:26:41;;;;;;;6.05;2.17;;;;;;;;;;4908130;28;20065;-71
2023/01/02 18:29:18;;;;;;;5.07;2.10;;;;;;;;;;4917387;28;20062;-71